Time;durP1;ratioP1;P1;durP2;ratioP2;P2;SDS_P1;SDS_P2;PMS_P1;PMS_P2;Temp;Humidity;BMP_temperature;BMP_pressure;BME280_temperature;BME280_humidity;BME280_pressure;Samples;Min_cycle;Max_cycle;Signal;HPM_P1;HPM_P2
2024/04/08 00:00:32;;;;;;;2.70;1.40;;;20.00;80.50;;;;;;4996666;28;20477;-76
2024/04/08 00:02:59;;;;;;;3.55;1.90;;;19.90;80.30;;;;;;4996816;28;20030;-76
2024/04/08 00:05:25;;;;;;;3.15;1.65;;;19.90;80.40;;;;;;4996315;28;20373;-76
2024/04/08 00:07:51;;;;;;;4.03;1.80;;;19.90;80.40;;;;;;4996864;28;20037;-75
2024/04/08 00:10:18;;;;;;;2.22;1.45;;;19.80;80.30;;;;;;4996443;28;20038;-76
2024/04/08 00:12:45;;;;;;;4.65;1.73;;;19.80;80.30;;;;;;4996794;28;20050;-75
2024/04/08 00:15:13;;;;;;;2.97;1.33;;;19.80;80.30;;;;;;4996691;28;20038;-76
2024/04/08 00:19:01;;;;;;;2.85;1.50;;;19.80;80.40;;;;;;5471582;26;20356;-77
2024/04/08 00:21:27;;;;;;;4.00;1.50;;;19.70;80.20;;;;;;5460904;26;20031;-77
2024/04/08 00:23:54;;;;;;;2.45;1.45;;;19.70;80.30;;;;;;5462347;26;20500;-76
2024/04/08 00:26:20;;;;;;;4.18;1.50;;;19.70;80.30;;;;;;5455738;26;20040;-76
2024/04/08 00:28:46;;;;;;;2.88;1.33;;;19.70;80.30;;;;;;5447045;26;20034;-76
2024/04/08 00:31:12;;;;;;;3.10;1.50;;;19.60;80.20;;;;;;5456473;26;20026;-76
2024/04/08 00:33:38;;;;;;;3.13;1.63;;;19.70;80.30;;;;;;5445239;26;20040;-77
2024/04/08 00:36:05;;;;;;;4.45;1.70;;;19.60;80.30;;;;;;5453855;26;20034;-76
2024/04/08 00:38:31;;;;;;;3.72;1.70;;;19.60;80.30;;;;;;5470363;26;20034;-76
2024/04/08 00:40:58;;;;;;;2.00;1.30;;;19.60;80.20;;;;;;5462156;26;20024;-76
2024/04/08 00:43:24;;;;;;;3.83;1.50;;;19.60;80.30;;;;;;5450171;26;20026;-76
2024/04/08 00:45:51;;;;;;;3.35;1.55;;;19.60;80.30;;;;;;5464031;26;20035;-77
2024/04/08 00:48:19;;;;;;;3.17;1.23;;;19.50;80.30;;;;;;5437300;26;20350;-75
2024/04/08 00:50:49;;;;;;;3.00;1.40;;;19.50;80.30;;;;;;5438588;26;20028;-76
2024/04/08 00:53:17;;;;;;;3.53;1.65;;;19.50;80.30;;;;;;5443896;26;20469;-76
2024/04/08 00:55:45;;;;;;;3.65;1.63;;;19.50;80.40;;;;;;5450271;26;20465;-75
2024/04/08 00:58:13;;;;;;;2.47;1.48;;;19.50;80.40;;;;;;5429550;26;20481;-75
2024/04/08 01:00:40;;;;;;;3.05;1.38;;;19.40;80.40;;;;;;5451505;26;20022;-75
2024/04/08 01:03:06;;;;;;;2.22;1.23;;;19.40;80.40;;;;;;5469272;26;20031;-75
2024/04/08 01:05:34;;;;;;;2.80;1.60;;;19.40;80.40;;;;;;5470088;26;20053;-76
2024/04/08 01:08:01;;;;;;;2.28;1.33;;;19.40;80.50;;;;;;5469312;26;20027;-76
2024/04/08 01:10:28;;;;;;;2.25;1.40;;;19.40;80.50;;;;;;5453232;26;20485;-75
2024/04/08 01:12:54;;;;;;;3.22;1.50;;;19.40;80.50;;;;;;5436537;26;20023;-76
2024/04/08 01:15:21;;;;;;;4.38;1.52;;;19.30;80.50;;;;;;5428541;26;20035;-75
2024/04/08 01:17:50;;;;;;;3.03;1.65;;;19.30;80.50;;;;;;5450344;26;20468;-74
2024/04/08 01:20:17;;;;;;;3.35;1.60;;;19.30;80.60;;;;;;5435860;26;20027;-74
2024/04/08 01:22:47;;;;;;;7.43;1.65;;;19.30;80.60;;;;;;5445205;26;20040;-73
2024/04/08 01:25:13;;;;;;;2.85;1.55;;;19.20;80.70;;;;;;5449676;26;20484;-74
2024/04/08 01:27:40;;;;;;;3.17;1.60;;;19.20;80.50;;;;;;5438149;26;20027;-74
2024/04/08 01:30:07;;;;;;;3.05;1.60;;;19.20;80.60;;;;;;5421066;26;20027;-74
2024/04/08 01:32:33;;;;;;;4.07;1.80;;;19.20;80.50;;;;;;5421506;26;20040;-74
2024/04/08 01:34:59;;;;;;;2.40;1.50;;;19.20;80.50;;;;;;5454176;26;20030;-74
2024/04/08 01:37:25;;;;;;;3.15;1.63;;;19.20;80.50;;;;;;5437133;26;20028;-73
2024/04/08 01:39:51;;;;;;;2.50;1.50;;;19.10;80.40;;;;;;5433101;26;20031;-74
2024/04/08 01:42:17;;;;;;;4.28;1.73;;;19.10;80.40;;;;;;5436548;26;20024;-73
2024/04/08 01:44:45;;;;;;;3.00;1.55;;;19.10;80.40;;;;;;5414485;26;20384;-74
2024/04/08 01:47:11;;;;;;;2.78;1.33;;;19.10;80.30;;;;;;5418995;26;20044;-73
2024/04/08 01:49:37;;;;;;;3.35;1.30;;;19.10;80.30;;;;;;5432112;26;20110;-74
2024/04/08 01:52:04;;;;;;;5.35;1.50;;;19.10;80.40;;;;;;5452986;26;20026;-73
2024/04/08 01:54:30;;;;;;;2.85;1.33;;;19.00;80.20;;;;;;5450934;26;20035;-73
2024/04/08 01:56:56;;;;;;;3.30;1.70;;;19.00;80.20;;;;;;5426694;26;20027;-74
2024/04/08 01:59:23;;;;;;;4.05;1.40;;;19.00;80.30;;;;;;5432822;26;20031;-74
2024/04/08 02:01:49;;;;;;;2.72;1.55;;;19.00;80.20;;;;;;5389919;26;20481;-74
2024/04/08 02:04:15;;;;;;;3.55;1.48;;;19.00;80.30;;;;;;5419205;26;20052;-74
2024/04/08 02:06:41;;;;;;;2.80;1.48;;;19.00;80.30;;;;;;5430150;26;20032;-74
2024/04/08 02:09:08;;;;;;;3.55;1.75;;;18.90;80.30;;;;;;5450998;26;20023;-74
2024/04/08 02:11:34;;;;;;;2.53;1.42;;;18.90;80.30;;;;;;5426108;26;20360;-74
2024/04/08 02:14:00;;;;;;;2.30;1.60;;;18.90;80.30;;;;;;5421951;26;20027;-74
2024/04/08 02:16:26;;;;;;;3.20;1.50;;;18.90;80.30;;;;;;5448784;26;20023;-74
2024/04/08 02:18:52;;;;;;;2.72;1.40;;;18.90;80.50;;;;;;5430729;26;20027;-75
2024/04/08 02:21:19;;;;;;;2.97;1.55;;;18.90;80.50;;;;;;5443829;26;20496;-74
2024/04/08 02:23:47;;;;;;;2.45;1.30;;;18.80;80.40;;;;;;5450692;26;20023;-74
2024/04/08 02:26:13;;;;;;;4.45;1.85;;;18.80;80.40;;;;;;5435818;26;20022;-74
2024/04/08 02:28:39;;;;;;;3.95;1.73;;;18.80;80.40;;;;;;5450241;26;20022;-75
2024/04/08 02:31:06;;;;;;;2.45;1.60;;;18.80;80.50;;;;;;5391145;26;20039;-74
2024/04/08 02:33:32;;;;;;;3.35;1.98;;;18.80;80.60;;;;;;5420344;26;20031;-74
2024/04/08 02:36:02;;;;;;;4.15;1.73;;;18.70;80.70;;;;;;5442431;26;20371;-74
2024/04/08 02:38:29;;;;;;;3.25;1.55;;;18.70;80.80;;;;;;5441979;26;20036;-77
2024/04/08 02:40:55;;;;;;;3.20;1.80;;;18.70;80.80;;;;;;5435731;26;20047;-77
2024/04/08 02:43:23;;;;;;;3.13;1.42;;;18.70;80.80;;;;;;5430569;26;20485;-77
2024/04/08 02:45:50;;;;;;;2.50;1.45;;;18.60;80.70;;;;;;5413063;26;20031;-77
2024/04/08 02:48:18;;;;;;;3.38;1.40;;;18.60;80.70;;;;;;5447960;26;20044;-76
2024/04/08 02:50:45;;;;;;;3.63;1.88;;;18.60;80.80;;;;;;5421609;26;20027;-77
2024/04/08 02:53:11;;;;;;;1.83;1.30;;;18.60;80.70;;;;;;5440371;26;20035;-77
2024/04/08 02:55:38;;;;;;;2.03;1.38;;;18.60;80.60;;;;;;5447327;26;20496;-76
2024/04/08 02:58:04;;;;;;;3.40;1.77;;;18.60;80.70;;;;;;5426323;26;20023;-76
2024/04/08 03:00:30;;;;;;;2.75;1.70;;;18.50;80.60;;;;;;5419169;26;20040;-77
2024/04/08 03:02:57;;;;;;;3.13;1.42;;;18.50;80.60;;;;;;5443880;26;20397;-77
2024/04/08 03:05:27;;;;;;;3.72;1.60;;;18.50;80.70;;;;;;5413607;26;20023;-78
2024/04/08 03:07:53;;;;;;;5.00;1.67;;;18.50;80.80;;;;;;5449390;26;20493;-76
2024/04/08 03:10:20;;;;;;;3.92;1.58;;;18.50;80.70;;;;;;5438164;26;20027;-77
2024/04/08 03:12:46;;;;;;;3.45;1.60;;;18.40;80.70;;;;;;5419094;26;20485;-77
2024/04/08 03:15:12;;;;;;;2.45;1.38;;;18.40;80.70;;;;;;5433449;26;20361;-76
2024/04/08 03:17:39;;;;;;;3.25;1.58;;;18.40;80.80;;;;;;5418499;26;20032;-76
2024/04/08 03:20:06;;;;;;;5.10;1.60;;;18.40;80.70;;;;;;5442578;26;20357;-74
2024/04/08 03:22:32;;;;;;;4.18;1.65;;;18.40;80.80;;;;;;5432486;26;20023;-76
2024/04/08 03:24:59;;;;;;;4.45;1.58;;;18.40;80.70;;;;;;5428433;26;20044;-76
2024/04/08 03:27:25;;;;;;;2.38;1.60;;;18.30;80.80;;;;;;5428868;26;20034;-77
2024/04/08 03:29:51;;;;;;;2.45;1.40;;;18.30;80.80;;;;;;5438814;26;20035;-76
2024/04/08 03:32:18;;;;;;;4.82;1.73;;;18.40;80.90;;;;;;5449687;26;20034;-75
2024/04/08 03:34:44;;;;;;;6.47;1.80;;;18.30;80.70;;;;;;5439956;26;20046;-75
2024/04/08 03:37:11;;;;;;;3.30;1.88;;;18.30;80.80;;;;;;5436982;26;20035;-75
2024/04/08 03:39:37;;;;;;;3.38;1.60;;;18.30;80.80;;;;;;5450539;26;20362;-75
2024/04/08 03:42:03;;;;;;;5.53;1.73;;;18.30;80.80;;;;;;5446979;26;20035;-75
2024/04/08 03:44:29;;;;;;;3.92;1.55;;;18.20;80.80;;;;;;5425609;26;20036;-74
2024/04/08 03:46:56;;;;;;;3.53;1.73;;;18.20;80.90;;;;;;5417583;26;20035;-74
2024/04/08 03:49:22;;;;;;;3.25;1.52;;;18.20;80.90;;;;;;5404528;26;20364;-75
2024/04/08 03:51:48;;;;;;;3.30;1.63;;;18.20;80.90;;;;;;5422043;26;20355;-76
2024/04/08 03:54:15;;;;;;;3.58;1.77;;;18.10;80.90;;;;;;5422947;26;20033;-76
2024/04/08 03:56:41;;;;;;;2.65;1.45;;;18.10;80.90;;;;;;5438447;26;20034;-76
2024/04/08 03:59:08;;;;;;;3.15;1.70;;;18.10;80.90;;;;;;5431463;26;20031;-75
2024/04/08 04:01:34;;;;;;;3.75;1.67;;;18.10;80.90;;;;;;5434881;26;20032;-74
2024/04/08 04:04:00;;;;;;;2.63;1.50;;;18.10;81.00;;;;;;5436327;26;20026;-74
2024/04/08 04:06:28;;;;;;;2.60;1.70;;;18.10;81.00;;;;;;5391730;26;20023;-74
2024/04/08 04:08:54;;;;;;;5.45;1.58;;;18.10;81.10;;;;;;5432624;26;20035;-74
2024/04/08 04:11:20;;;;;;;3.85;1.77;;;18.10;81.20;;;;;;5431712;26;20109;-74
2024/04/08 04:13:48;;;;;;;3.42;1.70;;;18.00;81.10;;;;;;5433731;26;20039;-74
2024/04/08 04:16:14;;;;;;;3.97;1.90;;;18.00;81.20;;;;;;5438151;26;20047;-74
2024/04/08 04:18:40;;;;;;;4.00;1.67;;;18.00;81.40;;;;;;5432594;26;20038;-74
2024/04/08 04:21:07;;;;;;;6.82;1.60;;;17.90;81.40;;;;;;5433352;26;20030;-76
2024/04/08 04:23:33;;;;;;;4.68;1.60;;;17.90;81.70;;;;;;5434636;26;20039;-76
2024/04/08 04:25:59;;;;;;;4.43;1.67;;;17.90;81.90;;;;;;5433032;26;20031;-76
2024/04/08 04:28:26;;;;;;;5.63;1.30;;;17.90;81.80;;;;;;5398257;26;20374;-76
2024/04/08 04:30:56;;;;;;;2.58;1.27;;;17.90;81.80;;;;;;5439087;26;20031;-77
2024/04/08 04:33:23;;;;;;;3.10;1.70;;;17.90;81.80;;;;;;5436737;26;20376;-76
2024/04/08 04:35:54;;;;;;;3.15;1.30;;;17.90;81.60;;;;;;5405806;26;20030;-76
2024/04/08 04:38:20;;;;;;;4.38;1.50;;;17.90;81.70;;;;;;5431890;26;20031;-76
2024/04/08 04:40:47;;;;;;;4.40;1.33;;;17.90;81.80;;;;;;5433470;26;20384;-76
2024/04/08 04:43:13;;;;;;;4.22;1.67;;;17.90;81.80;;;;;;5425334;26;20048;-76
2024/04/08 04:45:40;;;;;;;4.20;1.70;;;17.90;81.90;;;;;;5429221;26;20381;-75
2024/04/08 04:48:06;;;;;;;3.70;2.33;;;17.90;81.90;;;;;;5449820;26;20039;-75
2024/04/08 04:50:33;;;;;;;2.55;1.40;;;17.90;81.90;;;;;;5436088;26;20040;-75
2024/04/08 04:52:59;;;;;;;2.67;1.45;;;17.90;82.00;;;;;;5438574;26;20035;-75
2024/04/08 04:55:25;;;;;;;2.25;1.67;;;17.90;82.10;;;;;;5438371;26;20035;-76
2024/04/08 04:57:51;;;;;;;2.33;1.42;;;17.90;82.30;;;;;;5429201;26;20378;-75
2024/04/08 05:00:17;;;;;;;3.00;1.60;;;17.90;83.10;;;;;;5424874;26;20093;-75
2024/04/08 05:02:44;;;;;;;3.72;1.73;;;17.90;82.50;;;;;;5435399;26;20030;-81
2024/04/08 05:05:10;;;;;;;5.15;1.88;;;17.90;82.50;;;;;;5424217;26;20031;-78
2024/04/08 05:07:36;;;;;;;2.60;1.38;;;17.90;82.50;;;;;;5419466;26;20035;-74
2024/04/08 05:10:02;;;;;;;5.18;1.63;;;17.90;82.50;;;;;;5416753;26;20035;-74
2024/04/08 05:12:28;;;;;;;2.38;1.42;;;18.00;82.70;;;;;;5419503;26;20473;-74
2024/04/08 05:14:55;;;;;;;4.10;1.90;;;18.00;82.70;;;;;;5419859;26;20127;-74
2024/04/08 05:17:23;;;;;;;4.43;1.77;;;18.00;82.70;;;;;;5419947;26;20040;-74
2024/04/08 05:19:49;;;;;;;3.30;1.30;;;18.00;82.70;;;;;;5419179;26;20031;-74
2024/04/08 05:22:17;;;;;;;2.72;1.58;;;18.00;82.60;;;;;;5419921;26;20374;-74
2024/04/08 05:24:44;;;;;;;3.10;1.70;;;18.00;82.50;;;;;;5431826;26;20027;-74
2024/04/08 05:27:10;;;;;;;3.00;1.42;;;18.00;82.50;;;;;;5449384;26;20034;-74
2024/04/08 05:29:37;;;;;;;3.42;1.58;;;18.10;82.40;;;;;;5454089;26;20046;-74
2024/04/08 05:32:03;;;;;;;5.85;1.30;;;18.10;82.50;;;;;;5446051;26;20035;-74
2024/04/08 05:34:29;;;;;;;4.22;1.52;;;18.10;82.50;;;;;;5444962;26;20375;-74
2024/04/08 05:36:56;;;;;;;2.33;1.45;;;18.20;82.50;;;;;;5422580;26;20048;-70
2024/04/08 05:39:22;;;;;;;4.97;1.73;;;18.20;82.50;;;;;;5419298;26;20040;-73
2024/04/08 05:41:48;;;;;;;3.25;1.30;;;18.20;82.40;;;;;;5416794;26;20052;-74
2024/04/08 05:44:14;;;;;;;1.95;1.25;;;18.20;82.50;;;;;;5416129;26;20378;-74
2024/04/08 05:46:42;;;;;;;1.92;1.52;;;18.30;82.80;;;;;;5419030;26;20120;-74
2024/04/08 05:49:09;;;;;;;3.65;1.40;;;18.30;82.80;;;;;;5418172;26;20039;-74
2024/04/08 05:51:35;;;;;;;4.10;1.38;;;18.30;82.80;;;;;;5419281;26;20040;-74
2024/04/08 05:54:01;;;;;;;1.88;1.27;;;18.30;82.80;;;;;;5419535;26;20040;-74
2024/04/08 05:56:27;;;;;;;3.00;1.30;;;18.40;83.00;;;;;;5387239;26;20481;-74
2024/04/08 05:58:54;;;;;;;2.13;1.48;;;18.40;82.90;;;;;;5425180;26;20030;-74
2024/04/08 06:01:20;;;;;;;2.67;1.45;;;18.50;82.90;;;;;;5455322;26;20030;-74
2024/04/08 06:03:46;;;;;;;2.28;1.30;;;18.50;83.10;;;;;;5454634;26;20023;-74
2024/04/08 06:06:17;;;;;;;3.28;1.20;;;18.50;83.00;;;;;;5455138;26;20030;-74
2024/04/08 06:08:43;;;;;;;3.25;1.30;;;18.50;83.00;;;;;;5454863;26;20042;-74
2024/04/08 06:11:09;;;;;;;2.80;1.48;;;18.50;83.00;;;;;;5453880;26;20026;-74
2024/04/08 06:13:35;;;;;;;3.70;1.30;;;18.60;83.00;;;;;;5422601;26;20038;-73
2024/04/08 06:16:03;;;;;;;4.15;1.30;;;18.60;82.90;;;;;;5454673;26;20039;-74
2024/04/08 06:18:29;;;;;;;2.25;1.30;;;18.70;83.00;;;;;;5453493;26;20039;-74
2024/04/08 06:20:58;;;;;;;2.28;1.30;;;18.70;82.90;;;;;;5454981;26;20103;-74
2024/04/08 06:23:24;;;;;;;2.33;1.30;;;18.70;83.70;;;;;;5454275;26;20035;-73
2024/04/08 06:26:00;;;;;;;2.47;1.35;;;18.80;83.40;;;;;;5454981;26;20042;-74
2024/04/08 06:28:26;;;;;;;2.67;1.40;;;18.80;83.90;;;;;;5454430;26;20477;-74
2024/04/08 06:30:53;;;;;;;2.05;1.20;;;18.90;83.50;;;;;;5383272;26;20028;-74
2024/04/08 06:33:19;;;;;;;2.67;1.42;;;19.00;83.50;;;;;;5383419;26;20044;-74
2024/04/08 06:35:45;;;;;;;1.42;1.00;;;19.00;83.50;;;;;;5383136;26;20028;-74
2024/04/08 06:38:14;;;;;;;1.67;1.20;;;19.00;83.30;;;;;;5383415;26;20044;-74
2024/04/08 06:40:41;;;;;;;1.77;1.05;;;19.10;83.20;;;;;;5383098;26;20045;-74
2024/04/08 06:43:07;;;;;;;2.40;1.30;;;19.20;83.20;;;;;;5382800;26;20036;-74
2024/04/08 06:45:33;;;;;;;1.73;1.20;;;19.30;83.10;;;;;;5382944;26;20057;-74
2024/04/08 06:47:59;;;;;;;2.03;1.08;;;19.40;83.10;;;;;;5383297;26;20032;-75
2024/04/08 06:50:25;;;;;;;3.05;1.42;;;19.50;83.30;;;;;;5383112;26;20032;-75
2024/04/08 06:52:52;;;;;;;1.42;1.02;;;19.60;83.20;;;;;;5383267;26;20421;-75
2024/04/08 06:55:18;;;;;;;2.80;1.20;;;19.60;83.20;;;;;;5383082;26;20032;-75
2024/04/08 06:57:47;;;;;;;2.85;1.40;;;19.70;83.00;;;;;;5382367;26;20028;-75
2024/04/08 07:00:13;;;;;;;3.65;1.27;;;19.80;82.90;;;;;;5434794;26;20484;-75
2024/04/08 07:02:40;;;;;;;1.67;1.05;;;19.90;83.00;;;;;;5454365;26;20046;-75
2024/04/08 07:05:07;;;;;;;3.00;1.20;;;19.90;83.00;;;;;;5454526;26;20039;-75
2024/04/08 07:07:33;;;;;;;5.50;1.38;;;20.00;82.70;;;;;;5454185;26;20042;-73
2024/04/08 07:10:00;;;;;;;2.50;1.55;;;20.10;82.60;;;;;;5454278;26;20047;-77
2024/04/08 07:12:26;;;;;;;2.92;1.38;;;20.20;82.50;;;;;;5453036;26;20042;-75
2024/04/08 07:14:53;;;;;;;6.00;2.90;;;20.30;82.40;;;;;;5454083;26;20034;-74
2024/04/08 07:17:19;;;;;;;5.85;2.95;;;20.30;82.40;;;;;;5454264;26;20047;-74
2024/04/08 07:19:46;;;;;;;2.88;1.75;;;20.40;83.00;;;;;;5453327;26;20034;-74
2024/04/08 07:22:12;;;;;;;3.00;1.40;;;20.60;82.40;;;;;;5454290;26;20043;-75
2024/04/08 07:24:40;;;;;;;3.45;2.22;;;20.70;82.40;;;;;;5453290;26;20046;-74
2024/04/08 07:27:07;;;;;;;1.98;1.13;;;20.80;82.20;;;;;;5452250;26;20476;-74
2024/04/08 07:29:34;;;;;;;2.17;1.20;;;20.90;82.30;;;;;;5436655;26;20107;-74
2024/04/08 07:32:00;;;;;;;4.32;1.23;;;21.10;82.30;;;;;;5418061;26;20380;-75
2024/04/08 07:34:27;;;;;;;2.10;1.20;;;21.10;82.40;;;;;;5418327;26;20039;-74
2024/04/08 07:36:53;;;;;;;6.18;3.50;;;21.30;82.50;;;;;;5416595;26;20039;-75
2024/04/08 07:39:19;;;;;;;5.18;3.15;;;21.40;82.10;;;;;;5417858;26;20031;-74
2024/04/08 07:41:46;;;;;;;2.80;1.08;;;21.50;82.20;;;;;;5417162;26;20051;-75
2024/04/08 07:44:12;;;;;;;2.45;1.52;;;21.60;81.80;;;;;;5417917;26;20043;-74
2024/04/08 07:46:38;;;;;;;2.55;1.20;;;21.70;81.70;;;;;;5385708;26;20035;-74
2024/04/08 07:49:05;;;;;;;3.47;1.23;;;21.70;81.50;;;;;;5416450;26;20039;-75
2024/04/08 07:51:31;;;;;;;8.27;5.38;;;21.80;82.10;;;;;;5417777;26;20035;-75
2024/04/08 07:53:57;;;;;;;3.13;1.65;;;22.00;81.60;;;;;;5416343;26;20035;-75
2024/04/08 07:56:23;;;;;;;3.20;1.20;;;22.10;81.90;;;;;;5415919;26;20039;-74
2024/04/08 07:58:51;;;;;;;2.83;1.00;;;22.20;81.70;;;;;;5423024;26;20038;-74
2024/04/08 08:01:17;;;;;;;1.35;0.88;;;22.30;81.60;;;;;;5452794;26;20034;-75
2024/04/08 08:03:43;;;;;;;4.10;1.20;;;22.40;82.00;;;;;;5453407;26;20039;-75
2024/04/08 08:06:10;;;;;;;1.77;1.15;;;22.50;81.20;;;;;;5452462;26;20038;-75
2024/04/08 08:08:36;;;;;;;2.70;1.08;;;22.50;80.80;;;;;;5452530;26;20039;-75
2024/04/08 08:11:05;;;;;;;3.15;1.55;;;22.70;80.70;;;;;;5452661;26;20038;-70
2024/04/08 08:13:34;;;;;;;5.75;1.15;;;22.70;80.60;;;;;;5453247;26;20034;-70
2024/04/08 08:16:01;;;;;;;1.60;0.95;;;22.90;81.00;;;;;;5452684;26;20038;-69
2024/04/08 08:18:27;;;;;;;2.88;1.13;;;22.90;80.50;;;;;;5453004;26;20031;-69
2024/04/08 08:20:55;;;;;;;3.72;1.00;;;23.00;80.80;;;;;;5452534;26;20035;-73
2024/04/08 08:23:21;;;;;;;3.88;1.08;;;23.10;80.40;;;;;;5453188;26;20366;-73
2024/04/08 08:25:47;;;;;;;5.05;1.13;;;23.20;80.20;;;;;;5452390;26;20043;-73
2024/04/08 08:28:14;;;;;;;4.80;1.20;;;23.30;80.10;;;;;;5453147;26;20054;-73
2024/04/08 08:30:41;;;;;;;2.00;1.02;;;23.40;80.10;;;;;;5419483;26;20040;-73
2024/04/08 08:33:07;;;;;;;2.17;1.02;;;23.50;80.60;;;;;;5385727;26;20028;-73
2024/04/08 08:35:34;;;;;;;5.25;1.33;;;23.60;80.00;;;;;;5416872;26;20481;-69
2024/04/08 08:38:00;;;;;;;5.10;1.20;;;23.70;79.70;;;;;;5417521;26;20040;-73
2024/04/08 08:40:28;;;;;;;2.08;0.90;;;23.80;79.60;;;;;;5419760;26;20051;-73
2024/04/08 08:42:56;;;;;;;2.40;1.10;;;23.90;79.30;;;;;;5420003;26;20030;-73
2024/04/08 08:45:23;;;;;;;14.43;1.73;;;24.00;79.10;;;;;;5421111;26;20027;-73
2024/04/08 08:47:49;;;;;;;7.32;1.25;;;24.00;79.20;;;;;;5420926;26;20024;-73
2024/04/08 08:50:16;;;;;;;2.22;1.10;;;24.10;78.80;;;;;;5421190;26;20019;-73
2024/04/08 08:52:42;;;;;;;2.90;1.02;;;24.20;78.80;;;;;;5420638;26;20027;-73
2024/04/08 08:55:09;;;;;;;2.55;1.00;;;24.30;78.90;;;;;;5420863;26;20019;-74
2024/04/08 08:57:35;;;;;;;3.22;0.82;;;24.40;78.40;;;;;;5420832;26;20028;-73
2024/04/08 09:00:08;;;;;;;1.20;0.90;;;24.40;77.70;;;;;;5420534;26;20482;-76
2024/04/08 09:02:36;;;;;;;2.20;1.13;;;24.50;77.80;;;;;;5420060;26;20032;-74
2024/04/08 09:05:02;;;;;;;1.45;0.90;;;24.60;78.00;;;;;;5420797;26;20473;-75
2024/04/08 09:07:28;;;;;;;1.15;0.75;;;24.70;78.10;;;;;;5420321;26;20040;-76
2024/04/08 09:09:56;;;;;;;2.75;0.93;;;24.70;78.00;;;;;;5417350;26;20024;-78
2024/04/08 09:12:22;;;;;;;3.78;1.00;;;24.80;78.20;;;;;;5416491;26;20044;-78
2024/04/08 09:14:50;;;;;;;2.83;0.90;;;24.90;77.80;;;;;;5418433;26;20651;-77
2024/04/08 09:17:17;;;;;;;2.40;0.88;;;25.00;77.10;;;;;;5381319;26;20479;-77
2024/04/08 09:19:43;;;;;;;2.33;0.90;;;25.10;77.90;;;;;;5380583;26;20039;-78
2024/04/08 09:22:10;;;;;;;1.27;0.68;;;25.20;77.30;;;;;;5379087;26;20529;-77
2024/04/08 09:24:36;;;;;;;2.53;0.80;;;25.20;76.90;;;;;;5380176;26;20024;-77
2024/04/08 09:27:03;;;;;;;1.42;0.73;;;25.40;77.10;;;;;;5381580;26;20039;-77
2024/04/08 09:29:29;;;;;;;2.00;1.10;;;25.40;76.90;;;;;;5380068;26;20028;-77
2024/04/08 09:31:56;;;;;;;1.85;0.85;;;25.50;76.80;;;;;;5382944;26;20490;-77
2024/04/08 09:34:24;;;;;;;2.53;0.95;;;25.50;76.60;;;;;;5383395;26;20024;-77
2024/04/08 09:36:53;;;;;;;2.10;0.98;;;25.60;76.10;;;;;;5384455;26;20024;-77
2024/04/08 09:39:22;;;;;;;1.63;0.93;;;25.60;76.60;;;;;;5377357;26;20008;-77
2024/04/08 09:41:51;;;;;;;2.25;0.90;;;25.70;76.50;;;;;;5379017;26;20343;-77
2024/04/08 09:44:18;;;;;;;3.45;1.02;;;25.80;76.20;;;;;;5381596;26;20024;-77
2024/04/08 09:46:46;;;;;;;1.63;0.88;;;25.90;76.40;;;;;;5440460;26;20028;-77
2024/04/08 09:49:12;;;;;;;2.15;1.05;;;25.90;76.00;;;;;;5383194;26;20491;-77
2024/04/08 09:51:42;;;;;;;1.77;0.80;;;26.00;76.10;;;;;;5383514;26;20032;-77
2024/04/08 09:54:11;;;;;;;2.40;0.70;;;26.00;74.90;;;;;;5384236;26;20024;-77
2024/04/08 09:56:40;;;;;;;2.33;0.80;;;26.10;75.00;;;;;;5384666;26;20020;-77
2024/04/08 09:59:17;;;;;;;2.28;0.95;;;26.20;75.20;;;;;;5385414;26;20447;-77
2024/04/08 10:01:45;;;;;;;2.17;0.88;;;26.20;76.70;;;;;;5380675;26;20036;-77
2024/04/08 10:04:14;;;;;;;1.38;0.93;;;26.30;76.00;;;;;;5379824;26;20375;-79
2024/04/08 10:06:42;;;;;;;2.40;0.95;;;26.40;75.90;;;;;;5382689;26;20028;-79
2024/04/08 10:09:10;;;;;;;2.60;0.80;;;26.40;75.40;;;;;;5382800;26;20025;-78
2024/04/08 10:11:36;;;;;;;2.88;0.80;;;26.50;75.60;;;;;;5382965;26;20032;-78
2024/04/08 10:14:03;;;;;;;3.55;0.80;;;26.60;75.50;;;;;;5383154;26;20021;-78
2024/04/08 10:16:29;;;;;;;2.45;1.20;;;26.60;75.30;;;;;;5383578;26;20020;-78
2024/04/08 10:18:56;;;;;;;1.70;0.80;;;26.70;74.50;;;;;;5418069;26;20023;-78
2024/04/08 10:21:25;;;;;;;1.88;0.90;;;26.70;74.60;;;;;;5419647;26;20024;-78
2024/04/08 10:23:53;;;;;;;1.70;0.80;;;26.80;74.40;;;;;;5419660;26;20032;-79
2024/04/08 10:26:24;;;;;;;2.58;0.90;;;26.90;74.40;;;;;;5419842;26;20024;-79
2024/04/08 10:28:51;;;;;;;1.88;0.80;;;26.90;73.80;;;;;;5419487;26;20039;-79
2024/04/08 10:31:21;;;;;;;2.30;0.95;;;27.00;74.50;;;;;;5419283;26;20036;-78
2024/04/08 10:33:47;;;;;;;2.03;1.00;;;27.00;73.20;;;;;;5388055;26;20028;-79
2024/04/08 10:36:13;;;;;;;2.95;1.10;;;27.10;74.40;;;;;;5419624;26;20036;-79
2024/04/08 10:38:39;;;;;;;2.47;0.90;;;27.10;74.10;;;;;;5419599;26;20035;-79
2024/04/08 10:41:07;;;;;;;1.38;0.90;;;27.20;73.80;;;;;;5419250;26;20032;-79
2024/04/08 10:43:34;;;;;;;4.05;0.98;;;27.20;73.70;;;;;;5419615;26;20024;-79
2024/04/08 10:46:04;;;;;;;2.40;1.00;;;27.20;73.20;;;;;;5419166;26;20354;-79
2024/04/08 10:48:31;;;;;;;2.00;0.73;;;27.30;73.20;;;;;;5419250;26;20035;-79
2024/04/08 10:50:59;;;;;;;1.85;0.80;;;27.30;72.90;;;;;;5407582;26;20039;-79
2024/04/08 10:53:25;;;;;;;1.40;1.00;;;27.40;71.80;;;;;;5381037;26;20391;-78
2024/04/08 10:55:52;;;;;;;2.45;1.00;;;27.40;71.50;;;;;;5351900;26;20048;-78
2024/04/08 10:58:18;;;;;;;1.60;1.00;;;27.50;72.30;;;;;;5382991;26;20036;-78
2024/04/08 11:00:45;;;;;;;1.90;0.85;;;27.50;71.90;;;;;;5382368;26;20032;-79
2024/04/08 11:03:12;;;;;;;2.70;1.15;;;27.60;71.60;;;;;;5381239;26;20040;-79
2024/04/08 11:05:40;;;;;;;3.95;1.00;;;27.70;71.40;;;;;;5382872;26;20486;-79
2024/04/08 11:08:08;;;;;;;3.35;1.00;;;27.70;71.40;;;;;;5430608;26;20034;-78
2024/04/08 11:10:35;;;;;;;1.98;0.93;;;27.70;71.00;;;;;;5454128;26;20035;-78
2024/04/08 11:13:01;;;;;;;3.10;1.08;;;27.80;71.10;;;;;;5422694;26;20027;-79
2024/04/08 11:15:29;;;;;;;4.40;0.73;;;27.80;71.10;;;;;;5454137;26;20042;-79
2024/04/08 11:17:57;;;;;;;2.80;0.95;;;27.80;70.70;;;;;;5453621;26;20035;-78
2024/04/08 11:20:25;;;;;;;2.78;0.82;;;27.80;69.80;;;;;;5454276;26;20035;-79
2024/04/08 11:22:51;;;;;;;4.57;0.90;;;27.80;69.00;;;;;;5453905;26;20481;-79
2024/04/08 11:25:18;;;;;;;1.08;0.73;;;27.80;67.60;;;;;;5454273;26;20046;-78
2024/04/08 11:27:45;;;;;;;1.35;0.63;;;27.80;67.60;;;;;;5453963;26;20026;-79
2024/04/08 11:30:16;;;;;;;1.05;0.60;;;27.80;63.90;;;;;;5454086;26;20492;-79
2024/04/08 11:32:43;;;;;;;2.80;0.65;;;27.80;65.50;;;;;;5449046;26;20039;-77
2024/04/08 11:35:09;;;;;;;2.13;0.75;;;27.90;67.00;;;;;;5417416;26;20043;-77
2024/04/08 11:37:35;;;;;;;1.75;0.80;;;27.90;66.90;;;;;;5422087;26;20040;-77
2024/04/08 11:40:06;;;;;;;8.65;0.60;;;28.00;66.50;;;;;;5417389;26;20119;-78
2024/04/08 11:42:33;;;;;;;2.30;0.82;;;28.00;65.70;;;;;;5385414;26;20039;-77
2024/04/08 11:45:01;;;;;;;1.10;0.70;;;28.00;65.80;;;;;;5417570;26;20031;-78
2024/04/08 11:47:27;;;;;;;1.42;0.70;;;28.00;65.50;;;;;;5416518;26;20500;-77
2024/04/08 11:49:53;;;;;;;1.42;0.80;;;28.10;66.00;;;;;;5417537;26;20031;-79
2024/04/08 11:52:20;;;;;;;1.02;0.70;;;28.10;66.30;;;;;;5417062;26;20032;-78
2024/04/08 11:54:46;;;;;;;2.33;0.82;;;28.20;66.20;;;;;;5417803;26;20035;-78
2024/04/08 11:57:13;;;;;;;1.88;0.88;;;28.20;66.40;;;;;;5417868;26;20036;-79
2024/04/08 11:59:40;;;;;;;2.25;0.70;;;28.20;65.40;;;;;;5417669;26;20046;-79
2024/04/08 12:02:07;;;;;;;1.40;0.80;;;28.20;65.20;;;;;;5417153;26;20031;-79
2024/04/08 12:04:33;;;;;;;1.75;0.80;;;28.20;64.90;;;;;;5417766;26;20045;-79
2024/04/08 12:07:01;;;;;;;1.40;0.70;;;28.20;65.30;;;;;;5424985;26;20034;-79
2024/04/08 12:09:27;;;;;;;1.33;0.70;;;28.30;65.40;;;;;;5452709;26;20030;-79
2024/04/08 12:11:54;;;;;;;1.17;0.55;;;28.30;65.30;;;;;;5453455;26;20046;-79
2024/04/08 12:14:20;;;;;;;2.95;0.80;;;28.40;65.20;;;;;;5452773;26;20043;-79
2024/04/08 12:16:46;;;;;;;3.20;0.77;;;28.40;65.00;;;;;;5452847;26;20035;-78
2024/04/08 12:19:12;;;;;;;2.53;0.93;;;28.50;65.90;;;;;;5451668;26;20370;-78
2024/04/08 12:21:38;;;;;;;4.15;0.90;;;28.60;65.50;;;;;;5384787;26;20043;-79
2024/04/08 12:24:05;;;;;;;2.88;0.90;;;28.70;65.50;;;;;;5417259;26;20036;-79
2024/04/08 12:26:31;;;;;;;2.53;0.80;;;28.60;64.90;;;;;;5417351;26;20043;-79
2024/04/08 12:28:57;;;;;;;1.73;0.90;;;28.60;64.80;;;;;;5417105;26;20047;-79
2024/04/08 12:31:24;;;;;;;2.47;0.85;;;28.60;64.20;;;;;;5385044;26;20035;-79
2024/04/08 12:33:50;;;;;;;2.20;1.00;;;28.70;65.20;;;;;;5416069;26;20044;-80
2024/04/08 12:36:16;;;;;;;2.30;1.02;;;28.90;65.10;;;;;;5417221;26;20031;-80
2024/04/08 12:38:42;;;;;;;5.47;1.17;;;28.90;64.70;;;;;;5416050;26;20031;-79
2024/04/08 12:41:08;;;;;;;1.45;0.70;;;29.00;64.60;;;;;;5416926;26;20039;-79
2024/04/08 12:43:35;;;;;;;2.22;1.23;;;29.00;65.00;;;;;;5415712;26;20039;-80
2024/04/08 12:46:05;;;;;;;2.90;0.88;;;29.10;64.60;;;;;;5383957;26;20039;-79